sensor_id;sensor_type;location;lat;lon;timestamp;temperature;humidity
10304;DHT22;5197;48.152;8.590;2022-10-29T00:02:13;14.60;17.50
10304;DHT22;5197;48.152;8.590;2022-10-29T00:04:40;14.50;17.70
10304;DHT22;5197;48.152;8.590;2022-10-29T00:07:07;14.50;17.90
10304;DHT22;5197;48.152;8.590;2022-10-29T00:09:34;14.60;18.10
10304;DHT22;5197;48.152;8.590;2022-10-29T00:12:01;14.60;18.10
10304;DHT22;5197;48.152;8.590;2022-10-29T00:14:28;14.60;18.10
10304;DHT22;5197;48.152;8.590;2022-10-29T00:16:55;14.70;19.20
10304;DHT22;5197;48.152;8.590;2022-10-29T00:19:22;14.70;18.20
10304;DHT22;5197;48.152;8.590;2022-10-29T00:21:50;14.70;18.20
10304;DHT22;5197;48.152;8.590;2022-10-29T00:24:17;14.70;18.20
10304;DHT22;5197;48.152;8.590;2022-10-29T00:26:44;14.80;18.20
10304;DHT22;5197;48.152;8.590;2022-10-29T00:29:11;14.80;18.00
10304;DHT22;5197;48.152;8.590;2022-10-29T00:31:38;14.80;18.00
10304;DHT22;5197;48.152;8.590;2022-10-29T00:34:05;14.80;18.00
10304;DHT22;5197;48.152;8.590;2022-10-29T00:36:32;14.70;18.00
10304;DHT22;5197;48.152;8.590;2022-10-29T00:38:59;14.80;18.10
10304;DHT22;5197;48.152;8.590;2022-10-29T00:41:28;14.80;18.00
10304;DHT22;5197;48.152;8.590;2022-10-29T00:46:46;14.80;17.70
10304;DHT22;5197;48.152;8.590;2022-10-29T00:49:15;14.70;18.00
10304;DHT22;5197;48.152;8.590;2022-10-29T00:51:43;14.80;18.20
10304;DHT22;5197;48.152;8.590;2022-10-29T00:54:13;14.80;18.30
10304;DHT22;5197;48.152;8.590;2022-10-29T00:56:52;14.80;18.30
10304;DHT22;5197;48.152;8.590;2022-10-29T00:59:21;14.80;18.10
10304;DHT22;5197;48.152;8.590;2022-10-29T01:01:48;14.80;18.50
10304;DHT22;5197;48.152;8.590;2022-10-29T01:04:16;14.80;18.50
10304;DHT22;5197;48.152;8.590;2022-10-29T01:06:44;14.90;18.50
10304;DHT22;5197;48.152;8.590;2022-10-29T01:09:13;14.90;18.50
10304;DHT22;5197;48.152;8.590;2022-10-29T01:31:08;14.90;17.70
10304;DHT22;5197;48.152;8.590;2022-10-29T01:33:56;14.90;18.10
10304;DHT22;5197;48.152;8.590;2022-10-29T01:36:32;14.90;17.90
10304;DHT22;5197;48.152;8.590;2022-10-29T01:39:18;14.90;18.10
10304;DHT22;5197;48.152;8.590;2022-10-29T01:46:51;14.90;18.80
10304;DHT22;5197;48.152;8.590;2022-10-29T01:49:25;14.90;18.70
10304;DHT22;5197;48.152;8.590;2022-10-29T01:51:55;14.90;18.80
10304;DHT22;5197;48.152;8.590;2022-10-29T01:54:22;14.90;18.80
10304;DHT22;5197;48.152;8.590;2022-10-29T01:56:57;14.90;18.80
10304;DHT22;5197;48.152;8.590;2022-10-29T01:59:27;14.90;19.70
10304;DHT22;5197;48.152;8.590;2022-10-29T02:02:44;14.90;18.60
10304;DHT22;5197;48.152;8.590;2022-10-29T02:10:31;14.90;18.40
10304;DHT22;5197;48.152;8.590;2022-10-29T02:13:00;14.90;18.00
10304;DHT22;5197;48.152;8.590;2022-10-29T02:15:42;14.90;18.50
10304;DHT22;5197;48.152;8.590;2022-10-29T02:18:10;14.90;18.20
10304;DHT22;5197;48.152;8.590;2022-10-29T02:20:41;14.90;18.50
10304;DHT22;5197;48.152;8.590;2022-10-29T02:23:08;14.90;18.50
10304;DHT22;5197;48.152;8.590;2022-10-29T02:25:36;14.80;18.40
10304;DHT22;5197;48.152;8.590;2022-10-29T02:28:03;14.80;18.50
10304;DHT22;5197;48.152;8.590;2022-10-29T02:30:31;14.80;18.60
10304;DHT22;5197;48.152;8.590;2022-10-29T02:32:58;14.80;18.80
10304;DHT22;5197;48.152;8.590;2022-10-29T02:35:25;14.80;19.00
10304;DHT22;5197;48.152;8.590;2022-10-29T02:37:52;14.70;19.10
10304;DHT22;5197;48.152;8.590;2022-10-29T02:40:19;16.00;20.10
10304;DHT22;5197;48.152;8.590;2022-10-29T02:42:46;14.70;19.40
10304;DHT22;5197;48.152;8.590;2022-10-29T02:45:13;14.70;19.60
10304;DHT22;5197;48.152;8.590;2022-10-29T02:47:40;14.70;19.60
10304;DHT22;5197;48.152;8.590;2022-10-29T02:50:07;14.70;19.80
10304;DHT22;5197;48.152;8.590;2022-10-29T02:52:34;14.70;19.70
10304;DHT22;5197;48.152;8.590;2022-10-29T02:55:01;14.70;19.70
10304;DHT22;5197;48.152;8.590;2022-10-29T02:57:28;14.70;19.70
10304;DHT22;5197;48.152;8.590;2022-10-29T02:59:55;14.70;19.70
10304;DHT22;5197;48.152;8.590;2022-10-29T03:02:22;14.70;19.50
10304;DHT22;5197;48.152;8.590;2022-10-29T03:04:49;14.70;19.50
10304;DHT22;5197;48.152;8.590;2022-10-29T03:07:16;14.70;19.70
10304;DHT22;5197;48.152;8.590;2022-10-29T03:09:43;14.70;19.60
10304;DHT22;5197;48.152;8.590;2022-10-29T03:12:10;14.70;19.70
10304;DHT22;5197;48.152;8.590;2022-10-29T03:14:37;14.60;19.80
10304;DHT22;5197;48.152;8.590;2022-10-29T03:17:05;14.60;20.00
10304;DHT22;5197;48.152;8.590;2022-10-29T03:19:32;14.60;20.00
10304;DHT22;5197;48.152;8.590;2022-10-29T03:21:59;14.60;20.00
10304;DHT22;5197;48.152;8.590;2022-10-29T03:24:26;14.60;20.10
10304;DHT22;5197;48.152;8.590;2022-10-29T03:26:53;14.50;20.10
10304;DHT22;5197;48.152;8.590;2022-10-29T03:29:20;14.50;20.20
10304;DHT22;5197;48.152;8.590;2022-10-29T03:31:47;14.50;20.20
10304;DHT22;5197;48.152;8.590;2022-10-29T03:34:14;14.50;21.30
10304;DHT22;5197;48.152;8.590;2022-10-29T03:36:41;14.40;20.10
10304;DHT22;5197;48.152;8.590;2022-10-29T03:39:08;14.50;20.60
10304;DHT22;5197;48.152;8.590;2022-10-29T03:41:35;14.40;20.60
10304;DHT22;5197;48.152;8.590;2022-10-29T03:44:02;14.40;20.70
10304;DHT22;5197;48.152;8.590;2022-10-29T03:46:29;14.40;20.90
10304;DHT22;5197;48.152;8.590;2022-10-29T03:48:56;14.30;20.70
10304;DHT22;5197;48.152;8.590;2022-10-29T03:51:23;14.30;20.70
10304;DHT22;5197;48.152;8.590;2022-10-29T03:53:50;14.30;20.90
10304;DHT22;5197;48.152;8.590;2022-10-29T03:56:17;14.20;20.90
10304;DHT22;5197;48.152;8.590;2022-10-29T03:58:44;14.20;20.80
10304;DHT22;5197;48.152;8.590;2022-10-29T04:01:11;14.20;21.00
10304;DHT22;5197;48.152;8.590;2022-10-29T04:03:38;14.20;21.00
10304;DHT22;5197;48.152;8.590;2022-10-29T04:06:10;14.10;21.00
10304;DHT22;5197;48.152;8.590;2022-10-29T04:08:38;14.10;21.20
10304;DHT22;5197;48.152;8.590;2022-10-29T04:11:05;14.10;21.20
10304;DHT22;5197;48.152;8.590;2022-10-29T04:13:33;14.00;21.20
10304;DHT22;5197;48.152;8.590;2022-10-29T04:16:01;14.00;21.50
10304;DHT22;5197;48.152;8.590;2022-10-29T04:18:27;13.90;21.80
10304;DHT22;5197;48.152;8.590;2022-10-29T04:20:58;13.90;22.00
10304;DHT22;5197;48.152;8.590;2022-10-29T04:23:48;13.80;22.00
10304;DHT22;5197;48.152;8.590;2022-10-29T04:26:35;13.80;22.40
10304;DHT22;5197;48.152;8.590;2022-10-29T04:29:22;13.70;22.70
10304;DHT22;5197;48.152;8.590;2022-10-29T04:31:50;13.70;23.20
10304;DHT22;5197;48.152;8.590;2022-10-29T04:34:17;13.70;23.20
10304;DHT22;5197;48.152;8.590;2022-10-29T04:36:44;13.70;23.30
10304;DHT22;5197;48.152;8.590;2022-10-29T04:39:11;13.60;23.10
10304;DHT22;5197;48.152;8.590;2022-10-29T04:41:38;13.70;23.30
10304;DHT22;5197;48.152;8.590;2022-10-29T04:44:05;13.60;23.20
10304;DHT22;5197;48.152;8.590;2022-10-29T04:46:32;13.60;23.20
10304;DHT22;5197;48.152;8.590;2022-10-29T04:49:18;13.60;23.10
10304;DHT22;5197;48.152;8.590;2022-10-29T04:51:45;13.60;23.20
10304;DHT22;5197;48.152;8.590;2022-10-29T04:54:12;13.60;24.20
10304;DHT22;5197;48.152;8.590;2022-10-29T04:56:39;13.60;23.20
10304;DHT22;5197;48.152;8.590;2022-10-29T04:59:05;13.50;23.10
10304;DHT22;5197;48.152;8.590;2022-10-29T05:01:32;13.50;23.10
10304;DHT22;5197;48.152;8.590;2022-10-29T05:03:59;13.50;23.10
10304;DHT22;5197;48.152;8.590;2022-10-29T05:06:26;13.50;23.10
10304;DHT22;5197;48.152;8.590;2022-10-29T05:08:53;13.50;23.50
10304;DHT22;5197;48.152;8.590;2022-10-29T05:11:20;13.50;23.70
10304;DHT22;5197;48.152;8.590;2022-10-29T05:13:47;13.50;24.00
10304;DHT22;5197;48.152;8.590;2022-10-29T05:16:15;13.50;24.20
10304;DHT22;5197;48.152;8.590;2022-10-29T05:18:42;13.50;24.40
10304;DHT22;5197;48.152;8.590;2022-10-29T05:21:09;13.50;24.50
10304;DHT22;5197;48.152;8.590;2022-10-29T05:23:36;13.50;24.50
10304;DHT22;5197;48.152;8.590;2022-10-29T05:26:03;13.50;24.60
10304;DHT22;5197;48.152;8.590;2022-10-29T05:28:30;13.50;24.70
10304;DHT22;5197;48.152;8.590;2022-10-29T05:30:59;13.50;24.80
10304;DHT22;5197;48.152;8.590;2022-10-29T05:33:28;13.50;24.80
10304;DHT22;5197;48.152;8.590;2022-10-29T05:35:54;13.40;24.70
10304;DHT22;5197;48.152;8.590;2022-10-29T05:38:21;13.40;24.60
10304;DHT22;5197;48.152;8.590;2022-10-29T05:40:48;13.40;24.60
10304;DHT22;5197;48.152;8.590;2022-10-29T05:43:16;13.40;24.80
10304;DHT22;5197;48.152;8.590;2022-10-29T05:45:43;13.40;24.90
10304;DHT22;5197;48.152;8.590;2022-10-29T05:48:11;13.40;25.10
10304;DHT22;5197;48.152;8.590;2022-10-29T05:50:43;13.40;25.00
10304;DHT22;5197;48.152;8.590;2022-10-29T05:53:12;13.30;25.10
10304;DHT22;5197;48.152;8.590;2022-10-29T05:55:40;13.30;25.40
10304;DHT22;5197;48.152;8.590;2022-10-29T05:58:12;13.30;25.40
10304;DHT22;5197;48.152;8.590;2022-10-29T06:00:42;13.30;25.40
10304;DHT22;5197;48.152;8.590;2022-10-29T06:03:18;13.30;25.40
10304;DHT22;5197;48.152;8.590;2022-10-29T06:05:48;13.20;25.20
10304;DHT22;5197;48.152;8.590;2022-10-29T06:08:16;13.20;25.50
10304;DHT22;5197;48.152;8.590;2022-10-29T06:10:44;13.20;25.70
10304;DHT22;5197;48.152;8.590;2022-10-29T06:13:16;13.20;25.70
10304;DHT22;5197;48.152;8.590;2022-10-29T06:15:44;13.20;25.80
10304;DHT22;5197;48.152;8.590;2022-10-29T06:18:11;13.20;26.00
10304;DHT22;5197;48.152;8.590;2022-10-29T06:20:39;13.10;26.00
10304;DHT22;5197;48.152;8.590;2022-10-29T06:23:06;13.10;25.90
10304;DHT22;5197;48.152;8.590;2022-10-29T06:25:33;13.10;26.10
10304;DHT22;5197;48.152;8.590;2022-10-29T06:28:02;13.10;26.00
10304;DHT22;5197;48.152;8.590;2022-10-29T06:30:31;13.10;26.10
10304;DHT22;5197;48.152;8.590;2022-10-29T06:32:59;13.00;26.10
10304;DHT22;5197;48.152;8.590;2022-10-29T06:35:27;13.00;26.30
10304;DHT22;5197;48.152;8.590;2022-10-29T06:37:56;13.00;26.70
10304;DHT22;5197;48.152;8.590;2022-10-29T06:40:23;12.90;27.00
10304;DHT22;5197;48.152;8.590;2022-10-29T06:43:00;12.90;27.30
10304;DHT22;5197;48.152;8.590;2022-10-29T06:45:30;13.00;27.30
10304;DHT22;5197;48.152;8.590;2022-10-29T06:47:57;13.00;27.60
10304;DHT22;5197;48.152;8.590;2022-10-29T06:50:25;13.00;27.70
10304;DHT22;5197;48.152;8.590;2022-10-29T06:53:06;13.00;27.80
10304;DHT22;5197;48.152;8.590;2022-10-29T06:55:33;13.10;27.50
10304;DHT22;5197;48.152;8.590;2022-10-29T06:58:07;13.10;28.20
10304;DHT22;5197;48.152;8.590;2022-10-29T07:00:36;13.10;28.10
10304;DHT22;5197;48.152;8.590;2022-10-29T07:03:03;13.20;28.50
10304;DHT22;5197;48.152;8.590;2022-10-29T07:05:33;13.20;28.70
10304;DHT22;5197;48.152;8.590;2022-10-29T07:08:02;13.40;29.10
10304;DHT22;5197;48.152;8.590;2022-10-29T07:10:30;13.50;29.60
10304;DHT22;5197;48.152;8.590;2022-10-29T07:12:58;13.60;30.00
10304;DHT22;5197;48.152;8.590;2022-10-29T07:15:26;13.80;31.40
10304;DHT22;5197;48.152;8.590;2022-10-29T07:18:07;14.00;30.10
10304;DHT22;5197;48.152;8.590;2022-10-29T07:20:37;14.30;29.60
10304;DHT22;5197;48.152;8.590;2022-10-29T07:23:04;14.50;29.40
10304;DHT22;5197;48.152;8.590;2022-10-29T07:25:32;14.80;28.70
10304;DHT22;5197;48.152;8.590;2022-10-29T07:28:21;15.10;28.00
10304;DHT22;5197;48.152;8.590;2022-10-29T07:30:49;15.40;26.70
10304;DHT22;5197;48.152;8.590;2022-10-29T07:33:17;15.80;24.70
10304;DHT22;5197;48.152;8.590;2022-10-29T07:35:44;16.30;25.00
10304;DHT22;5197;48.152;8.590;2022-10-29T07:38:12;16.40;22.50
10304;DHT22;5197;48.152;8.590;2022-10-29T07:40:46;16.80;21.00
10304;DHT22;5197;48.152;8.590;2022-10-29T07:43:14;17.10;20.00
10304;DHT22;5197;48.152;8.590;2022-10-29T07:45:43;17.40;18.60
10304;DHT22;5197;48.152;8.590;2022-10-29T07:48:11;17.70;16.80
10304;DHT22;5197;48.152;8.590;2022-10-29T07:50:38;18.10;14.80
10304;DHT22;5197;48.152;8.590;2022-10-29T07:53:06;18.50;12.90
10304;DHT22;5197;48.152;8.590;2022-10-29T07:55:34;18.80;11.00
10304;DHT22;5197;48.152;8.590;2022-10-29T07:58:04;19.10;9.60
10304;DHT22;5197;48.152;8.590;2022-10-29T08:00:33;19.20;8.30
10304;DHT22;5197;48.152;8.590;2022-10-29T08:03:00;19.50;6.70
10304;DHT22;5197;48.152;8.590;2022-10-29T08:05:28;19.50;5.30
10304;DHT22;5197;48.152;8.590;2022-10-29T08:07:56;19.60;4.10
10304;DHT22;5197;48.152;8.590;2022-10-29T08:10:24;19.70;4.20
10304;DHT22;5197;48.152;8.590;2022-10-29T08:12:53;19.80;4.20
10304;DHT22;5197;48.152;8.590;2022-10-29T08:15:23;19.90;3.80
10304;DHT22;5197;48.152;8.590;2022-10-29T08:17:50;19.80;2.80
10304;DHT22;5197;48.152;8.590;2022-10-29T08:20:17;19.50;2.70
10304;DHT22;5197;48.152;8.590;2022-10-29T08:22:45;19.30;3.70
10304;DHT22;5197;48.152;8.590;2022-10-29T08:25:12;19.10;3.60
10304;DHT22;5197;48.152;8.590;2022-10-29T08:27:39;18.90;3.50
10304;DHT22;5197;48.152;8.590;2022-10-29T08:30:09;18.80;3.40
10304;DHT22;5197;48.152;8.590;2022-10-29T08:32:36;18.60;3.30
10304;DHT22;5197;48.152;8.590;2022-10-29T08:35:09;18.40;4.20
10304;DHT22;5197;48.152;8.590;2022-10-29T08:37:44;18.20;3.10
10304;DHT22;5197;48.152;8.590;2022-10-29T08:45:49;18.00;2.90
10304;DHT22;5197;48.152;8.590;2022-10-29T08:50:55;17.80;2.80
10304;DHT22;5197;48.152;8.590;2022-10-29T08:53:30;17.80;2.80
10304;DHT22;5197;48.152;8.590;2022-10-29T08:56:03;17.80;2.80
10304;DHT22;5197;48.152;8.590;2022-10-29T08:59:00;17.80;2.80
10304;DHT22;5197;48.152;8.590;2022-10-29T09:01:29;17.90;2.90
10304;DHT22;5197;48.152;8.590;2022-10-29T09:03:56;17.90;2.90
10304;DHT22;5197;48.152;8.590;2022-10-29T09:09:38;18.00;2.90
10304;DHT22;5197;48.152;8.590;2022-10-29T09:12:43;18.00;2.90
10304;DHT22;5197;48.152;8.590;2022-10-29T09:26:37;18.20;3.00
10304;DHT22;5197;48.152;8.590;2022-10-29T09:29:32;18.30;3.10
10304;DHT22;5197;48.152;8.590;2022-10-29T09:32:44;18.40;3.30
10304;DHT22;5197;48.152;8.590;2022-10-29T09:35:16;18.40;2.20
10304;DHT22;5197;48.152;8.590;2022-10-29T09:37:55;18.50;2.00
10304;DHT22;5197;48.152;8.590;2022-10-29T09:40:40;18.60;1.10
10304;DHT22;5197;48.152;8.590;2022-10-29T09:46:08;18.70;1.00
10304;DHT22;5197;48.152;8.590;2022-10-29T09:48:48;18.80;1.00
10304;DHT22;5197;48.152;8.590;2022-10-29T09:52:22;18.90;1.00
10304;DHT22;5197;48.152;8.590;2022-10-29T09:54:30;19.00;1.00
10304;DHT22;5197;48.152;8.590;2022-10-29T09:57:00;19.00;1.00
10304;DHT22;5197;48.152;8.590;2022-10-29T09:59:32;19.00;1.00
10304;DHT22;5197;48.152;8.590;2022-10-29T10:02:01;19.20;1.00
10304;DHT22;5197;48.152;8.590;2022-10-29T10:04:34;19.30;1.00
10304;DHT22;5197;48.152;8.590;2022-10-29T10:09:54;19.40;1.00
10304;DHT22;5197;48.152;8.590;2022-10-29T10:23:01;19.80;1.00
10304;DHT22;5197;48.152;8.590;2022-10-29T10:25:42;19.80;1.00
10304;DHT22;5197;48.152;8.590;2022-10-29T10:28:17;19.90;1.00
10304;DHT22;5197;48.152;8.590;2022-10-29T10:33:33;20.10;1.00
10304;DHT22;5197;48.152;8.590;2022-10-29T10:36:04;20.20;1.00
10304;DHT22;5197;48.152;8.590;2022-10-29T10:39:12;20.30;1.00
10304;DHT22;5197;48.152;8.590;2022-10-29T10:41:37;18.00;1.00
10304;DHT22;5197;48.152;8.590;2022-10-29T10:44:11;20.40;1.00
10304;DHT22;5197;48.152;8.590;2022-10-29T10:46:41;20.50;1.00
10304;DHT22;5197;48.152;8.590;2022-10-29T10:49:17;20.50;1.00
10304;DHT22;5197;48.152;8.590;2022-10-29T10:51:53;20.60;1.00
10304;DHT22;5197;48.152;8.590;2022-10-29T10:56:56;20.80;1.00
10304;DHT22;5197;48.152;8.590;2022-10-29T10:59:28;20.90;1.00
10304;DHT22;5197;48.152;8.590;2022-10-29T11:02:00;20.90;1.00
10304;DHT22;5197;48.152;8.590;2022-10-29T11:04:33;21.00;1.00
10304;DHT22;5197;48.152;8.590;2022-10-29T11:07:06;21.10;1.00
10304;DHT22;5197;48.152;8.590;2022-10-29T11:09:40;21.10;1.00
10304;DHT22;5197;48.152;8.590;2022-10-29T11:12:18;21.20;1.00
10304;DHT22;5197;48.152;8.590;2022-10-29T11:17:31;21.30;1.00
10304;DHT22;5197;48.152;8.590;2022-10-29T11:20:06;21.30;1.00
10304;DHT22;5197;48.152;8.590;2022-10-29T11:22:55;21.40;1.00
10304;DHT22;5197;48.152;8.590;2022-10-29T11:25:40;21.40;1.00
10304;DHT22;5197;48.152;8.590;2022-10-29T11:28:20;21.40;1.00
10304;DHT22;5197;48.152;8.590;2022-10-29T11:36:52;21.40;1.00
10304;DHT22;5197;48.152;8.590;2022-10-29T11:39:44;21.50;1.00
10304;DHT22;5197;48.152;8.590;2022-10-29T11:42:13;21.60;1.00
10304;DHT22;5197;48.152;8.590;2022-10-29T11:44:40;21.70;1.00
10304;DHT22;5197;48.152;8.590;2022-10-29T11:55:52;22.10;1.00
10304;DHT22;5197;48.152;8.590;2022-10-29T11:58:25;22.20;1.00
10304;DHT22;5197;48.152;8.590;2022-10-29T12:01:15;22.20;1.00
10304;DHT22;5197;48.152;8.590;2022-10-29T12:03:58;22.30;1.00
10304;DHT22;5197;48.152;8.590;2022-10-29T12:06:47;22.50;1.00
10304;DHT22;5197;48.152;8.590;2022-10-29T12:11:55;22.60;1.00
10304;DHT22;5197;48.152;8.590;2022-10-29T12:17:12;21.80;1.00
10304;DHT22;5197;48.152;8.590;2022-10-29T12:25:26;22.80;1.00
10304;DHT22;5197;48.152;8.590;2022-10-29T12:28:13;22.90;1.00
10304;DHT22;5197;48.152;8.590;2022-10-29T12:31:07;22.90;1.00
10304;DHT22;5197;48.152;8.590;2022-10-29T12:33:49;22.90;1.00
10304;DHT22;5197;48.152;8.590;2022-10-29T12:36:37;22.90;1.00
10304;DHT22;5197;48.152;8.590;2022-10-29T12:39:16;22.90;1.00
10304;DHT22;5197;48.152;8.590;2022-10-29T12:41:51;22.90;1.00
10304;DHT22;5197;48.152;8.590;2022-10-29T12:47:43;22.90;1.00
10304;DHT22;5197;48.152;8.590;2022-10-29T12:53:01;22.80;1.00
10304;DHT22;5197;48.152;8.590;2022-10-29T12:55:31;22.90;1.00
10304;DHT22;5197;48.152;8.590;2022-10-29T13:01:29;22.90;1.00
10304;DHT22;5197;48.152;8.590;2022-10-29T13:09:31;22.90;1.00
10304;DHT22;5197;48.152;8.590;2022-10-29T13:12:04;22.90;1.00
10304;DHT22;5197;48.152;8.590;2022-10-29T13:17:03;23.00;1.00
10304;DHT22;5197;48.152;8.590;2022-10-29T13:30:42;23.10;1.00
10304;DHT22;5197;48.152;8.590;2022-10-29T13:38:41;23.20;1.00
10304;DHT22;5197;48.152;8.590;2022-10-29T13:41:40;23.20;1.00
10304;DHT22;5197;48.152;8.590;2022-10-29T13:47:02;23.20;1.00
10304;DHT22;5197;48.152;8.590;2022-10-29T13:52:04;23.30;1.00
10304;DHT22;5197;48.152;8.590;2022-10-29T13:54:39;23.30;1.00
10304;DHT22;5197;48.152;8.590;2022-10-29T13:57:23;23.30;1.00
10304;DHT22;5197;48.152;8.590;2022-10-29T14:00:05;23.30;1.00
10304;DHT22;5197;48.152;8.590;2022-10-29T14:10:28;23.20;1.00
10304;DHT22;5197;48.152;8.590;2022-10-29T14:13:00;23.20;1.00
10304;DHT22;5197;48.152;8.590;2022-10-29T14:15:32;23.20;1.00
10304;DHT22;5197;48.152;8.590;2022-10-29T14:18:26;23.20;1.00
10304;DHT22;5197;48.152;8.590;2022-10-29T14:20:54;23.30;1.00
10304;DHT22;5197;48.152;8.590;2022-10-29T14:23:22;23.20;1.00
10304;DHT22;5197;48.152;8.590;2022-10-29T14:25:51;23.20;1.00
10304;DHT22;5197;48.152;8.590;2022-10-29T14:28:32;23.20;1.00
10304;DHT22;5197;48.152;8.590;2022-10-29T14:31:05;23.20;1.00
10304;DHT22;5197;48.152;8.590;2022-10-29T14:33:34;23.20;1.00
10304;DHT22;5197;48.152;8.590;2022-10-29T14:38:50;23.30;1.00
10304;DHT22;5197;48.152;8.590;2022-10-29T14:41:18;23.20;1.00
10304;DHT22;5197;48.152;8.590;2022-10-29T14:43:55;23.10;1.00
10304;DHT22;5197;48.152;8.590;2022-10-29T14:46:29;23.10;1.00
10304;DHT22;5197;48.152;8.590;2022-10-29T14:49:18;23.10;1.00
10304;DHT22;5197;48.152;8.590;2022-10-29T14:51:53;23.20;1.00
10304;DHT22;5197;48.152;8.590;2022-10-29T14:54:25;23.10;1.00
10304;DHT22;5197;48.152;8.590;2022-10-29T14:56:59;23.10;1.00
10304;DHT22;5197;48.152;8.590;2022-10-29T14:59:28;23.10;1.00
10304;DHT22;5197;48.152;8.590;2022-10-29T15:02:00;23.10;1.00
10304;DHT22;5197;48.152;8.590;2022-10-29T15:04:56;23.10;1.00
10304;DHT22;5197;48.152;8.590;2022-10-29T15:07:34;23.00;1.00
10304;DHT22;5197;48.152;8.590;2022-10-29T15:12:36;23.00;1.00
10304;DHT22;5197;48.152;8.590;2022-10-29T15:15:21;22.90;1.00
10304;DHT22;5197;48.152;8.590;2022-10-29T15:17:57;22.90;1.00
10304;DHT22;5197;48.152;8.590;2022-10-29T15:23:00;22.80;1.00
10304;DHT22;5197;48.152;8.590;2022-10-29T15:25:34;22.70;1.00
10304;DHT22;5197;48.152;8.590;2022-10-29T15:28:03;22.60;1.00
10304;DHT22;5197;48.152;8.590;2022-10-29T15:30:36;22.50;1.00
10304;DHT22;5197;48.152;8.590;2022-10-29T15:33:05;22.30;1.00
10304;DHT22;5197;48.152;8.590;2022-10-29T15:35:48;22.20;1.00
10304;DHT22;5197;48.152;8.590;2022-10-29T15:43:50;21.60;1.00
10304;DHT22;5197;48.152;8.590;2022-10-29T15:48:49;21.20;1.00
10304;DHT22;5197;48.152;8.590;2022-10-29T15:51:16;21.20;1.00
10304;DHT22;5197;48.152;8.590;2022-10-29T15:53:45;21.00;1.00
10304;DHT22;5197;48.152;8.590;2022-10-29T15:56:12;21.00;1.00
10304;DHT22;5197;48.152;8.590;2022-10-29T15:58:40;20.90;1.00
10304;DHT22;5197;48.152;8.590;2022-10-29T16:01:07;20.90;1.00
10304;DHT22;5197;48.152;8.590;2022-10-29T16:03:37;20.70;1.00
10304;DHT22;5197;48.152;8.590;2022-10-29T16:06:06;20.70;1.00
10304;DHT22;5197;48.152;8.590;2022-10-29T16:08:41;20.60;1.00
10304;DHT22;5197;48.152;8.590;2022-10-29T16:11:14;20.60;1.00
10304;DHT22;5197;48.152;8.590;2022-10-29T16:13:41;20.60;1.00
10304;DHT22;5197;48.152;8.590;2022-10-29T16:16:12;20.60;1.00
10304;DHT22;5197;48.152;8.590;2022-10-29T16:18:39;20.60;1.00
10304;DHT22;5197;48.152;8.590;2022-10-29T16:21:06;20.50;1.00
10304;DHT22;5197;48.152;8.590;2022-10-29T16:23:35;20.50;1.00
10304;DHT22;5197;48.152;8.590;2022-10-29T16:26:03;20.50;1.00
10304;DHT22;5197;48.152;8.590;2022-10-29T16:28:30;20.40;1.00
10304;DHT22;5197;48.152;8.590;2022-10-29T16:30:58;20.30;1.00
10304;DHT22;5197;48.152;8.590;2022-10-29T16:33:25;20.30;1.00
10304;DHT22;5197;48.152;8.590;2022-10-29T16:35:52;20.10;1.00
10304;DHT22;5197;48.152;8.590;2022-10-29T16:38:19;20.00;1.00
10304;DHT22;5197;48.152;8.590;2022-10-29T16:40:46;19.90;1.00
10304;DHT22;5197;48.152;8.590;2022-10-29T16:43:13;19.80;1.00
10304;DHT22;5197;48.152;8.590;2022-10-29T16:45:40;19.70;1.00
10304;DHT22;5197;48.152;8.590;2022-10-29T16:48:07;19.70;1.00
10304;DHT22;5197;48.152;8.590;2022-10-29T16:50:34;19.70;1.00
10304;DHT22;5197;48.152;8.590;2022-10-29T16:53:06;19.60;1.00
10304;DHT22;5197;48.152;8.590;2022-10-29T16:55:37;19.60;1.00
10304;DHT22;5197;48.152;8.590;2022-10-29T16:58:11;19.60;1.00
10304;DHT22;5197;48.152;8.590;2022-10-29T17:00:39;19.50;1.00
10304;DHT22;5197;48.152;8.590;2022-10-29T17:03:06;19.40;1.00
10304;DHT22;5197;48.152;8.590;2022-10-29T17:05:39;19.30;1.00
10304;DHT22;5197;48.152;8.590;2022-10-29T17:08:07;19.20;1.00
10304;DHT22;5197;48.152;8.590;2022-10-29T17:10:35;19.10;1.00
10304;DHT22;5197;48.152;8.590;2022-10-29T17:13:03;19.00;1.00
10304;DHT22;5197;48.152;8.590;2022-10-29T17:15:30;18.90;1.00
10304;DHT22;5197;48.152;8.590;2022-10-29T17:17:57;18.90;1.00
10304;DHT22;5197;48.152;8.590;2022-10-29T17:20:24;18.80;1.00
10304;DHT22;5197;48.152;8.590;2022-10-29T17:22:52;18.80;1.00
10304;DHT22;5197;48.152;8.590;2022-10-29T17:25:19;18.70;1.00
10304;DHT22;5197;48.152;8.590;2022-10-29T17:27:46;18.70;1.00
10304;DHT22;5197;48.152;8.590;2022-10-29T17:30:13;18.70;1.00
10304;DHT22;5197;48.152;8.590;2022-10-29T17:32:40;18.70;1.00
10304;DHT22;5197;48.152;8.590;2022-10-29T17:35:07;18.70;1.00
10304;DHT22;5197;48.152;8.590;2022-10-29T17:37:34;18.70;1.00
10304;DHT22;5197;48.152;8.590;2022-10-29T17:40:01;18.70;1.00
10304;DHT22;5197;48.152;8.590;2022-10-29T17:42:33;18.60;1.00
10304;DHT22;5197;48.152;8.590;2022-10-29T17:45:00;18.50;1.00
10304;DHT22;5197;48.152;8.590;2022-10-29T17:47:28;18.30;1.00
10304;DHT22;5197;48.152;8.590;2022-10-29T17:49:55;18.20;1.00
10304;DHT22;5197;48.152;8.590;2022-10-29T17:52:22;18.10;1.00
10304;DHT22;5197;48.152;8.590;2022-10-29T17:54:49;17.90;1.00
10304;DHT22;5197;48.152;8.590;2022-10-29T17:57:16;17.80;1.00
10304;DHT22;5197;48.152;8.590;2022-10-29T17:59:43;17.70;1.00
10304;DHT22;5197;48.152;8.590;2022-10-29T18:02:10;17.60;1.00
10304;DHT22;5197;48.152;8.590;2022-10-29T18:04:37;17.60;1.00
10304;DHT22;5197;48.152;8.590;2022-10-29T18:07:04;17.60;1.00
10304;DHT22;5197;48.152;8.590;2022-10-29T18:09:31;17.50;1.00
10304;DHT22;5197;48.152;8.590;2022-10-29T18:11:58;17.50;1.00
10304;DHT22;5197;48.152;8.590;2022-10-29T18:14:25;17.50;1.00
10304;DHT22;5197;48.152;8.590;2022-10-29T18:16:52;17.40;1.00
10304;DHT22;5197;48.152;8.590;2022-10-29T18:19:19;17.40;1.00
10304;DHT22;5197;48.152;8.590;2022-10-29T18:21:46;17.40;1.00
10304;DHT22;5197;48.152;8.590;2022-10-29T18:24:13;17.40;1.00
10304;DHT22;5197;48.152;8.590;2022-10-29T18:26:40;17.30;1.00
10304;DHT22;5197;48.152;8.590;2022-10-29T18:29:10;17.30;1.00
10304;DHT22;5197;48.152;8.590;2022-10-29T18:31:37;17.20;1.00
10304;DHT22;5197;48.152;8.590;2022-10-29T18:34:08;17.20;1.00
10304;DHT22;5197;48.152;8.590;2022-10-29T18:36:35;17.20;1.00
10304;DHT22;5197;48.152;8.590;2022-10-29T18:39:04;17.20;1.00
10304;DHT22;5197;48.152;8.590;2022-10-29T18:41:32;17.10;1.00
10304;DHT22;5197;48.152;8.590;2022-10-29T18:44:00;17.10;1.00
10304;DHT22;5197;48.152;8.590;2022-10-29T18:46:27;17.10;1.00
10304;DHT22;5197;48.152;8.590;2022-10-29T18:48:54;17.00;1.00
10304;DHT22;5197;48.152;8.590;2022-10-29T18:51:26;17.00;1.00
10304;DHT22;5197;48.152;8.590;2022-10-29T18:53:55;17.00;1.00
10304;DHT22;5197;48.152;8.590;2022-10-29T18:56:24;17.00;1.00
10304;DHT22;5197;48.152;8.590;2022-10-29T18:58:55;17.00;1.00
10304;DHT22;5197;48.152;8.590;2022-10-29T19:01:25;17.00;1.00
10304;DHT22;5197;48.152;8.590;2022-10-29T19:03:55;17.00;1.00
10304;DHT22;5197;48.152;8.590;2022-10-29T19:06:25;17.00;1.00
10304;DHT22;5197;48.152;8.590;2022-10-29T19:08:52;17.00;1.00